Time;durP1;ratioP1;P1;durP2;ratioP2;P2;SDS_P1;SDS_P2;PMS_P1;PMS_P2;Temp;Humidity;BMP_temperature;BMP_pressure;BME280_temperature;BME280_humidity;BME280_pressure;Samples;Min_cycle;Max_cycle;Signal;HPM_P1;HPM_P2
2024/01/12 00:00:33;;;;;;;139.57;40.03;;;-2.70;85.90;;;;;;5020455;28;20411;-62
2024/01/12 00:03:01;;;;;;;184.00;41.45;;;-2.80;86.00;;;;;;5021250;28;20397;-60
2024/01/12 00:05:26;;;;;;;118.28;40.20;;;-2.80;86.20;;;;;;5026019;28;20433;-61
2024/01/12 00:07:52;;;;;;;116.18;39.30;;;-2.80;86.30;;;;;;5022603;28;20063;-60
2024/01/12 00:10:18;;;;;;;130.32;38.67;;;-2.90;86.30;;;;;;5021686;28;20057;-61
2024/01/12 00:12:43;;;;;;;115.72;38.53;;;-2.90;86.60;;;;;;5023108;28;20091;-62
2024/01/12 00:15:09;;;;;;;111.18;39.53;;;-2.90;86.80;;;;;;5027673;28;20079;-62
2024/01/12 00:17:34;;;;;;;146.00;39.65;;;-2.90;87.00;;;;;;5022366;28;20067;-63
2024/01/12 00:20:02;;;;;;;111.30;39.83;;;-2.90;87.20;;;;;;5027302;28;20029;-62
2024/01/12 00:22:28;;;;;;;109.50;39.53;;;-2.80;87.30;;;;;;5030079;28;20041;-60
2024/01/12 00:24:53;;;;;;;118.60;41.00;;;-2.80;87.30;;;;;;5027927;28;20091;-60
2024/01/12 00:27:19;;;;;;;114.95;40.97;;;-2.80;87.30;;;;;;5027905;28;20473;-60
2024/01/12 00:29:44;;;;;;;127.40;42.25;;;-2.80;87.30;;;;;;5023855;28;20037;-62
2024/01/12 00:32:11;;;;;;;134.27;39.47;;;-2.70;87.20;;;;;;5023284;28;20041;-62
2024/01/12 00:34:37;;;;;;;119.45;41.25;;;-2.70;87.00;;;;;;5023393;28;20494;-62
2024/01/12 00:37:03;;;;;;;120.13;41.28;;;-2.70;87.00;;;;;;5028098;28;20125;-61
2024/01/12 00:39:28;;;;;;;120.90;40.40;;;-2.80;86.90;;;;;;5028455;28;20033;-62
2024/01/12 00:41:54;;;;;;;117.13;41.13;;;-2.80;86.70;;;;;;5029918;28;20128;-61
2024/01/12 00:44:21;;;;;;;131.27;43.17;;;-2.80;86.60;;;;;;5027822;28;20128;-60
2024/01/12 00:46:50;;;;;;;115.88;41.42;;;-2.90;86.60;;;;;;5029380;28;20037;-60
2024/01/12 00:49:17;;;;;;;120.90;41.60;;;-2.90;86.50;;;;;;5027376;28;20540;-60
2024/01/12 00:51:44;;;;;;;118.65;41.33;;;-3.00;86.60;;;;;;5030219;28;20517;-62
2024/01/12 00:54:09;;;;;;;115.18;40.72;;;-3.00;86.80;;;;;;5030231;28;20029;-61
2024/01/12 00:56:35;;;;;;;121.65;40.25;;;-3.10;86.90;;;;;;5029362;28;20038;-62
2024/01/12 00:59:00;;;;;;;113.18;40.90;;;-3.10;87.00;;;;;;5028171;28;20071;-62
2024/01/12 01:01:26;;;;;;;117.10;41.38;;;-3.10;87.00;;;;;;5029156;28;20050;-61
2024/01/12 01:03:52;;;;;;;120.03;40.80;;;-3.10;87.00;;;;;;5022344;28;20861;-62
2024/01/12 01:06:17;;;;;;;122.07;41.15;;;-3.20;87.00;;;;;;5029620;28;20042;-62
2024/01/12 01:08:43;;;;;;;115.70;40.80;;;-3.20;87.20;;;;;;5027385;28;20033;-62
2024/01/12 01:11:09;;;;;;;117.18;40.83;;;-3.20;87.00;;;;;;5025543;28;20033;-61
2024/01/12 01:13:36;;;;;;;111.10;39.92;;;-3.30;87.00;;;;;;5031530;28;20040;-62
2024/01/12 01:16:02;;;;;;;113.70;39.30;;;-3.30;87.00;;;;;;5026644;28;20038;-62
2024/01/12 01:18:30;;;;;;;106.30;37.50;;;-3.40;86.90;;;;;;5029690;28;20040;-61
2024/01/12 01:20:57;;;;;;;108.65;38.25;;;-3.40;87.00;;;;;;5030242;28;20456;-62
2024/01/12 01:23:22;;;;;;;107.70;38.17;;;-3.40;87.20;;;;;;5030141;28;20046;-61
2024/01/12 01:25:48;;;;;;;113.93;40.03;;;-3.40;87.30;;;;;;5029861;28;20033;-60
2024/01/12 01:28:14;;;;;;;110.25;40.22;;;-3.50;87.50;;;;;;5029704;28;20052;-62
2024/01/12 01:30:39;;;;;;;115.15;39.55;;;-3.50;87.70;;;;;;5030132;28;20034;-62
2024/01/12 01:33:05;;;;;;;111.07;39.20;;;-3.50;87.80;;;;;;5029410;28;20029;-61
2024/01/12 01:35:31;;;;;;;113.05;39.05;;;-3.50;88.70;;;;;;5030337;28;20041;-61
2024/01/12 01:37:56;;;;;;;108.82;39.22;;;-3.50;87.70;;;;;;5024835;28;20041;-60
2024/01/12 01:40:22;;;;;;;107.57;39.47;;;-3.50;87.70;;;;;;5030012;28;20400;-63
2024/01/12 01:42:48;;;;;;;107.05;39.30;;;-3.50;87.70;;;;;;5030403;28;20085;-62
2024/01/12 01:45:14;;;;;;;107.40;40.35;;;-3.40;87.80;;;;;;5029807;28;20037;-62
2024/01/12 01:47:41;;;;;;;112.30;38.75;;;-3.50;87.70;;;;;;5024060;28;20501;-63
2024/01/12 01:50:08;;;;;;;108.68;38.28;;;-3.50;87.60;;;;;;5023652;28;20037;-61
2024/01/12 01:52:34;;;;;;;95.03;36.72;;;-3.50;87.60;;;;;;5025482;28;20041;-62
2024/01/12 01:54:59;;;;;;;104.63;37.10;;;-3.50;87.70;;;;;;5024864;28;20033;-62
2024/01/12 01:57:27;;;;;;;105.20;39.78;;;-3.50;87.90;;;;;;5020838;28;20034;-62
2024/01/12 01:59:54;;;;;;;105.18;39.10;;;-3.50;88.00;;;;;;5020982;28;20099;-61
2024/01/12 02:02:21;;;;;;;105.30;38.30;;;-3.50;88.00;;;;;;5025324;28;20096;-62
2024/01/12 02:04:47;;;;;;;105.55;38.55;;;-3.50;88.10;;;;;;5022198;28;20026;-62
2024/01/12 02:07:12;;;;;;;112.30;38.65;;;-3.40;88.10;;;;;;5026980;28;20037;-61
2024/01/12 02:09:38;;;;;;;107.57;39.33;;;-3.40;88.90;;;;;;5022319;28;20025;-63
2024/01/12 02:12:04;;;;;;;108.18;39.28;;;-3.40;88.00;;;;;;5019532;28;20410;-61
2024/01/12 02:14:30;;;;;;;118.10;40.90;;;-3.30;88.00;;;;;;5024331;28;20030;-63
2024/01/12 02:16:56;;;;;;;108.53;38.30;;;-3.30;87.90;;;;;;5020920;28;20034;-62
2024/01/12 02:19:22;;;;;;;114.97;40.47;;;-3.30;87.60;;;;;;5022926;28;20041;-62
2024/01/12 02:21:48;;;;;;;107.22;38.83;;;-3.30;87.50;;;;;;5021513;28;20412;-61
2024/01/12 02:24:13;;;;;;;114.88;40.45;;;-3.30;87.40;;;;;;5024859;28;20022;-61
2024/01/12 02:26:39;;;;;;;110.50;38.35;;;-3.20;88.20;;;;;;5024301;28;20057;-63
2024/01/12 02:29:05;;;;;;;118.93;41.25;;;-3.30;87.20;;;;;;5017860;28;20410;-61
2024/01/12 02:31:31;;;;;;;115.55;38.72;;;-3.30;87.20;;;;;;5020974;28;20382;-62
2024/01/12 02:33:56;;;;;;;114.93;41.15;;;-3.30;87.30;;;;;;5023192;28;20044;-62
2024/01/12 02:36:26;;;;;;;113.90;40.67;;;-3.30;87.40;;;;;;5019692;28;20041;-62
2024/01/12 02:38:52;;;;;;;111.28;39.35;;;-3.30;87.30;;;;;;5023343;28;20044;-63
2024/01/12 02:41:17;;;;;;;118.25;41.50;;;-3.30;87.30;;;;;;5021454;28;20433;-62
2024/01/12 02:43:43;;;;;;;115.47;40.40;;;-3.30;87.30;;;;;;5026239;28;20033;-63
2024/01/12 02:46:09;;;;;;;115.97;40.05;;;-3.30;87.20;;;;;;5021219;28;20043;-63
2024/01/12 02:48:35;;;;;;;110.22;39.47;;;-3.30;87.20;;;;;;5023018;28;20037;-61
2024/01/12 02:51:00;;;;;;;112.88;41.45;;;-3.40;87.20;;;;;;5020966;28;20100;-62
2024/01/12 02:53:26;;;;;;;104.85;39.28;;;-3.40;87.30;;;;;;5021529;28;20072;-61
2024/01/12 02:55:51;;;;;;;105.75;38.78;;;-3.40;87.30;;;;;;5024811;28;20030;-61
2024/01/12 02:58:17;;;;;;;115.53;39.40;;;-3.40;87.30;;;;;;5024542;28;20065;-61
2024/01/12 03:00:42;;;;;;;117.28;41.53;;;-3.50;87.40;;;;;;5023183;28;20413;-62
2024/01/12 03:03:08;;;;;;;120.57;41.05;;;-3.40;87.70;;;;;;5022716;28;20036;-60
2024/01/12 03:05:33;;;;;;;112.10;41.40;;;-3.50;87.80;;;;;;5021394;28;20041;-62
2024/01/12 03:07:59;;;;;;;111.18;39.55;;;-3.40;87.90;;;;;;5030397;28;20029;-61
2024/01/12 03:10:25;;;;;;;114.05;40.47;;;-3.40;87.90;;;;;;5028957;28;20033;-62
2024/01/12 03:12:50;;;;;;;113.93;40.30;;;-3.40;88.00;;;;;;5029540;28;20030;-62
2024/01/12 03:15:16;;;;;;;109.97;40.88;;;-3.40;88.00;;;;;;5027689;28;20042;-60
2024/01/12 03:17:42;;;;;;;103.80;39.08;;;-3.30;88.00;;;;;;5021925;28;20075;-62
2024/01/12 03:20:08;;;;;;;104.75;38.40;;;-3.30;88.00;;;;;;5033190;28;20037;-63
2024/01/12 03:22:34;;;;;;;107.10;38.70;;;-3.30;87.90;;;;;;5025406;28;20040;-62
2024/01/12 03:25:00;;;;;;;104.88;38.28;;;-3.30;87.70;;;;;;5029076;28;20108;-61
2024/01/12 03:27:27;;;;;;;110.20;39.10;;;-3.20;87.70;;;;;;5029038;28;20079;-62
2024/01/12 03:29:52;;;;;;;101.07;37.70;;;-3.30;87.50;;;;;;5020999;28;20052;-62
2024/01/12 03:32:19;;;;;;;101.40;38.22;;;-3.30;87.40;;;;;;5024956;28;20397;-60
2024/01/12 03:34:44;;;;;;;106.88;38.78;;;-3.30;87.50;;;;;;5025662;28;20509;-61
2024/01/12 03:37:10;;;;;;;108.50;38.17;;;-3.20;87.50;;;;;;5017836;28;20068;-60
2024/01/12 03:39:35;;;;;;;100.68;36.78;;;-3.30;87.40;;;;;;5028519;28;20038;-63
2024/01/12 03:42:01;;;;;;;101.30;37.00;;;-3.20;87.40;;;;;;5033085;28;20381;-62
2024/01/12 03:44:26;;;;;;;91.90;34.85;;;-3.20;87.50;;;;;;5023906;28;20112;-60
2024/01/12 03:46:52;;;;;;;100.55;37.72;;;-3.10;87.40;;;;;;5031873;28;20037;-61
2024/01/12 03:49:18;;;;;;;98.95;38.00;;;-3.10;87.30;;;;;;5022673;28;20549;-61
2024/01/12 03:51:44;;;;;;;95.35;36.22;;;-3.10;87.00;;;;;;5027711;28;20038;-62
2024/01/12 03:54:10;;;;;;;92.18;35.15;;;-3.10;87.00;;;;;;5032393;28;20107;-63
2024/01/12 03:56:35;;;;;;;96.45;36.15;;;-3.10;86.90;;;;;;5023771;28;20038;-61
2024/01/12 03:59:01;;;;;;;100.25;36.97;;;-3.10;87.50;;;;;;5029515;28;20037;-61
2024/01/12 04:01:27;;;;;;;98.72;37.10;;;-3.10;86.50;;;;;;5033516;28;20057;-62
2024/01/12 04:03:52;;;;;;;93.47;34.65;;;-3.10;86.10;;;;;;5023632;28;20030;-62
2024/01/12 04:06:18;;;;;;;92.82;35.67;;;-3.20;85.90;;;;;;5028316;28;20086;-62
2024/01/12 04:08:44;;;;;;;95.60;35.33;;;-3.20;86.00;;;;;;5022489;28;20096;-63
2024/01/12 04:11:21;;;;;;;100.40;35.65;;;-3.20;86.00;;;;;;5019512;28;20409;-60
2024/01/12 04:13:46;;;;;;;96.95;35.90;;;-3.20;85.90;;;;;;5016120;28;20125;-60
2024/01/12 04:16:12;;;;;;;98.55;36.38;;;-3.20;85.80;;;;;;5031741;28;20108;-60
2024/01/12 04:18:37;;;;;;;95.45;36.40;;;-3.30;85.60;;;;;;5031774;28;20085;-62
2024/01/12 04:21:03;;;;;;;93.43;35.15;;;-3.30;85.60;;;;;;5022941;28;20125;-62
2024/01/12 04:23:29;;;;;;;96.53;36.10;;;-3.40;85.90;;;;;;5026175;28;20261;-61
2024/01/12 04:25:54;;;;;;;92.22;35.65;;;-3.40;86.10;;;;;;5028344;28;20049;-60
2024/01/12 04:28:20;;;;;;;96.07;35.85;;;-3.40;86.00;;;;;;5022479;28;20500;-61
2024/01/12 04:30:46;;;;;;;87.38;34.08;;;-3.40;86.00;;;;;;5027586;28;20041;-62
2024/01/12 04:33:11;;;;;;;87.47;33.58;;;-3.40;86.00;;;;;;5024042;28;20033;-61
2024/01/12 04:35:37;;;;;;;92.43;34.80;;;-3.40;86.10;;;;;;5025634;28;20501;-60
2024/01/12 04:38:02;;;;;;;86.93;34.20;;;-3.40;87.10;;;;;;5028968;28;20030;-62
2024/01/12 04:40:28;;;;;;;87.68;32.78;;;-3.40;86.10;;;;;;5028663;28;20097;-61
2024/01/12 04:42:54;;;;;;;88.32;33.72;;;-3.40;86.00;;;;;;5022583;28;20032;-61
2024/01/12 04:45:19;;;;;;;92.00;34.17;;;-3.30;86.00;;;;;;5023313;28;20391;-61
2024/01/12 04:47:45;;;;;;;90.90;34.72;;;-3.30;86.10;;;;;;5023114;28;20164;-62
2024/01/12 04:50:10;;;;;;;93.63;35.53;;;-3.30;86.10;;;;;;5020347;28;20030;-62
2024/01/12 04:52:36;;;;;;;87.90;34.80;;;-3.30;85.80;;;;;;5020620;28;20050;-60
2024/01/12 04:55:02;;;;;;;93.63;35.20;;;-3.30;85.70;;;;;;5020946;28;20038;-61
2024/01/12 04:57:28;;;;;;;90.05;34.13;;;-3.30;85.60;;;;;;5019845;28;20083;-60
2024/01/12 04:59:53;;;;;;;85.32;33.28;;;-3.30;85.60;;;;;;5024851;28;20037;-62
2024/01/12 05:02:19;;;;;;;98.40;35.88;;;-3.30;85.80;;;;;;5032897;28;20113;-60
2024/01/12 05:04:44;;;;;;;87.30;34.13;;;-3.20;85.60;;;;;;5030043;28;20497;-62
2024/01/12 05:07:10;;;;;;;93.13;33.53;;;-3.20;85.60;;;;;;5034016;28;20124;-62
2024/01/12 05:09:35;;;;;;;89.05;34.20;;;-3.20;85.80;;;;;;5026196;28;20034;-61
2024/01/12 05:12:04;;;;;;;89.30;34.70;;;-3.20;85.90;;;;;;5024486;28;20026;-62
2024/01/12 05:14:33;;;;;;;93.80;34.60;;;-3.20;86.00;;;;;;5024889;28;20099;-60
2024/01/12 05:16:58;;;;;;;95.32;35.28;;;-3.20;86.00;;;;;;5023838;28;20069;-62
2024/01/12 05:19:24;;;;;;;108.82;35.55;;;-3.20;85.80;;;;;;5023914;28;20073;-61
2024/01/12 05:21:50;;;;;;;88.97;34.10;;;-3.10;85.70;;;;;;5024295;28;20037;-61
2024/01/12 05:24:16;;;;;;;86.50;32.15;;;-3.20;85.50;;;;;;5025359;28;20061;-62
2024/01/12 05:26:43;;;;;;;86.38;33.72;;;-3.20;85.60;;;;;;5022890;28;20543;-61
2024/01/12 05:29:08;;;;;;;85.78;32.95;;;-3.20;85.50;;;;;;5021140;28;20048;-62
2024/01/12 05:31:35;;;;;;;85.22;34.30;;;-3.20;85.40;;;;;;5023086;28;20632;-60
2024/01/12 05:34:00;;;;;;;86.93;33.75;;;-3.20;85.20;;;;;;5026070;28;20438;-62
2024/01/12 05:36:26;;;;;;;83.00;32.70;;;-3.30;84.90;;;;;;5027375;28;20064;-61
2024/01/12 05:38:51;;;;;;;89.05;33.90;;;-3.30;84.90;;;;;;5020382;28;20413;-62
2024/01/12 05:41:17;;;;;;;94.82;35.92;;;-3.30;85.10;;;;;;5023329;28;20567;-62
2024/01/12 05:43:43;;;;;;;87.60;34.28;;;-3.40;84.90;;;;;;5027501;28;20068;-59
2024/01/12 05:46:08;;;;;;;82.38;34.08;;;-3.40;84.70;;;;;;5022166;28;20327;-60
2024/01/12 05:48:34;;;;;;;91.80;35.35;;;-3.40;84.40;;;;;;5025669;28;20095;-61
2024/01/12 05:51:00;;;;;;;98.57;37.35;;;-3.40;84.10;;;;;;5021998;28;20030;-62
2024/01/12 05:53:25;;;;;;;91.75;37.63;;;-3.50;83.80;;;;;;5027027;28;20045;-62
2024/01/12 05:55:55;;;;;;;95.85;38.67;;;-3.60;83.50;;;;;;5025437;28;20038;-60
2024/01/12 05:58:20;;;;;;;100.82;36.00;;;-3.60;83.50;;;;;;5025612;28;20508;-60
2024/01/12 06:00:47;;;;;;;99.13;34.83;;;-3.70;83.50;;;;;;5023281;28;20049;-61
2024/01/12 06:03:13;;;;;;;90.65;35.58;;;-3.80;83.60;;;;;;5024681;28;20521;-61
2024/01/12 06:05:40;;;;;;;94.68;36.33;;;-3.90;83.90;;;;;;5022648;28;20129;-62
2024/01/12 06:08:05;;;;;;;94.63;35.85;;;-4.00;84.50;;;;;;5026919;28;20033;-61
2024/01/12 06:10:31;;;;;;;88.30;35.92;;;-4.10;84.70;;;;;;5030260;28;20455;-63
2024/01/12 06:12:57;;;;;;;88.28;33.88;;;-4.10;84.90;;;;;;5020090;28;20026;-62
2024/01/12 06:15:22;;;;;;;92.65;34.97;;;-4.10;85.10;;;;;;5025801;28;20038;-62
2024/01/12 06:17:48;;;;;;;92.63;34.83;;;-4.10;85.20;;;;;;5022487;28;20167;-62
2024/01/12 06:20:14;;;;;;;90.38;36.25;;;-4.10;85.30;;;;;;5022413;28;20116;-62
2024/01/12 06:22:40;;;;;;;89.22;35.53;;;-4.20;85.30;;;;;;5026636;28;20132;-60
2024/01/12 06:25:06;;;;;;;94.00;34.22;;;-4.20;85.20;;;;;;5019079;28;20029;-62
2024/01/12 06:27:31;;;;;;;95.95;37.30;;;-4.20;85.10;;;;;;5026591;28;20041;-62
2024/01/12 06:29:57;;;;;;;92.43;35.78;;;-4.20;85.30;;;;;;5022096;28;20025;-62
2024/01/12 06:32:22;;;;;;;87.78;33.95;;;-4.20;85.30;;;;;;5022537;28;20053;-61
2024/01/12 06:34:48;;;;;;;87.18;34.03;;;-4.40;85.00;;;;;;5025360;28;20038;-62
2024/01/12 06:37:14;;;;;;;95.22;36.25;;;-4.20;84.90;;;;;;5019892;28;20022;-62
2024/01/12 06:39:39;;;;;;;92.63;34.05;;;-4.30;84.90;;;;;;5023974;28;20033;-60
2024/01/12 06:42:05;;;;;;;87.78;33.67;;;-4.30;84.90;;;;;;5020251;28;20568;-62
2024/01/12 06:44:30;;;;;;;83.22;33.47;;;-4.30;85.10;;;;;;5026077;28;20034;-60
2024/01/12 06:46:56;;;;;;;84.88;32.72;;;-4.40;85.40;;;;;;5023140;28;20137;-63
2024/01/12 06:49:22;;;;;;;89.18;33.28;;;-4.40;85.70;;;;;;5021014;28;20034;-62
2024/01/12 06:51:47;;;;;;;81.07;32.33;;;-4.30;85.90;;;;;;5027354;28;20124;-62
2024/01/12 06:54:13;;;;;;;87.32;33.38;;;-4.30;85.80;;;;;;5026165;28;20534;-63
2024/01/12 06:56:39;;;;;;;84.43;34.08;;;-4.20;85.70;;;;;;5022183;28;20037;-62
2024/01/12 06:59:05;;;;;;;91.05;34.38;;;-4.20;85.60;;;;;;5025609;28;20088;-63
2024/01/12 07:01:31;;;;;;;89.30;34.08;;;-4.20;85.50;;;;;;5025483;28;20416;-62
2024/01/12 07:03:58;;;;;;;90.80;34.08;;;-4.10;85.40;;;;;;5022914;28;20168;-61
2024/01/12 07:06:23;;;;;;;88.25;33.92;;;-4.10;85.40;;;;;;5025053;28;20298;-61
2024/01/12 07:08:49;;;;;;;94.78;33.75;;;-4.00;85.40;;;;;;5024016;28;20416;-60
2024/01/12 07:11:14;;;;;;;93.65;34.42;;;-4.00;85.40;;;;;;5023450;28;20038;-62
2024/01/12 07:13:40;;;;;;;85.35;32.85;;;-4.00;85.40;;;;;;5021623;28;20033;-62
2024/01/12 07:16:06;;;;;;;85.32;32.95;;;-4.00;85.50;;;;;;5024752;28;20030;-62
2024/01/12 07:18:31;;;;;;;89.25;33.08;;;-3.90;86.50;;;;;;5029745;28;20034;-62
2024/01/12 07:21:02;;;;;;;111.60;34.70;;;-3.80;85.80;;;;;;5018370;28;20485;-61
2024/01/12 07:23:31;;;;;;;97.65;34.75;;;-3.90;85.70;;;;;;5029187;28;20087;-60
2024/01/12 07:25:58;;;;;;;95.20;34.30;;;-3.80;85.60;;;;;;5021288;28;20136;-61
2024/01/12 07:28:24;;;;;;;95.10;36.08;;;-3.80;85.60;;;;;;5021565;28;20041;-61
2024/01/12 07:30:51;;;;;;;100.15;35.30;;;-3.80;85.60;;;;;;5023527;28;20048;-60
2024/01/12 07:33:17;;;;;;;100.68;34.67;;;-3.80;85.80;;;;;;5019414;28;20038;-61
2024/01/12 07:35:42;;;;;;;102.32;35.38;;;-3.80;85.80;;;;;;5023058;28;20121;-60
2024/01/12 07:38:09;;;;;;;103.28;36.92;;;-3.70;86.00;;;;;;5022160;28;20033;-62
2024/01/12 07:40:34;;;;;;;123.28;35.50;;;-3.70;86.00;;;;;;5021428;28;20053;-61
2024/01/12 07:43:00;;;;;;;95.90;34.13;;;-3.70;86.00;;;;;;5019677;28;20054;-60
2024/01/12 07:45:25;;;;;;;114.60;35.70;;;-3.60;85.90;;;;;;5021724;28;20036;-60
2024/01/12 07:47:51;;;;;;;129.25;37.92;;;-3.60;85.90;;;;;;5023087;28;20045;-61
2024/01/12 07:50:17;;;;;;;98.80;35.70;;;-3.60;85.80;;;;;;5021255;28;20041;-61
2024/01/12 07:52:42;;;;;;;128.80;37.00;;;-3.60;85.80;;;;;;5026432;28;20026;-62
2024/01/12 07:55:08;;;;;;;168.05;39.20;;;-3.50;85.80;;;;;;5022330;28;20034;-62
2024/01/12 07:57:34;;;;;;;209.38;38.00;;;-3.60;85.70;;;;;;5021228;28;20045;-61
2024/01/12 07:59:59;;;;;;;118.00;35.58;;;-3.50;85.80;;;;;;5022312;28;20038;-60
2024/01/12 08:02:25;;;;;;;111.72;34.92;;;-3.60;85.80;;;;;;5023928;28;20033;-62
2024/01/12 08:04:50;;;;;;;105.20;35.65;;;-3.60;85.90;;;;;;5022846;28;20157;-61
2024/01/12 08:07:16;;;;;;;107.07;37.28;;;-3.50;86.10;;;;;;5023037;28;20073;-61
2024/01/12 08:09:41;;;;;;;250.18;41.83;;;-3.50;86.10;;;;;;5023344;28;20029;-62
2024/01/12 08:12:07;;;;;;;123.95;42.10;;;-3.50;86.00;;;;;;5020724;28;20112;-62
2024/01/12 08:14:33;;;;;;;131.13;39.58;;;-3.50;85.80;;;;;;5025444;28;20041;-63
2024/01/12 08:16:59;;;;;;;142.13;38.47;;;-3.50;85.70;;;;;;5018523;28;20069;-63
2024/01/12 08:19:24;;;;;;;172.02;40.72;;;-3.60;85.60;;;;;;5024177;28;20112;-62
2024/01/12 08:21:50;;;;;;;131.48;38.17;;;-3.60;85.80;;;;;;5020363;28;20077;-61
2024/01/12 08:24:15;;;;;;;118.07;38.92;;;-3.70;85.80;;;;;;5025040;28;20040;-62
2024/01/12 08:26:41;;;;;;;155.68;37.17;;;-3.70;85.80;;;;;;5028299;28;20441;-61
2024/01/12 08:29:07;;;;;;;123.45;39.33;;;-3.70;86.00;;;;;;5021133;28;20032;-60
2024/01/12 08:31:32;;;;;;;106.38;36.70;;;-3.70;86.10;;;;;;5021491;28;20546;-61
2024/01/12 08:33:58;;;;;;;126.47;39.22;;;-3.70;86.10;;;;;;5022232;28;20045;-61
2024/01/12 08:36:24;;;;;;;109.50;37.67;;;-3.70;86.20;;;;;;5024461;28;20088;-61
2024/01/12 08:38:50;;;;;;;114.85;37.15;;;-3.70;87.10;;;;;;5027216;28;20567;-60
2024/01/12 08:41:16;;;;;;;114.13;38.92;;;-3.70;86.30;;;;;;5022018;28;20567;-60
2024/01/12 08:43:42;;;;;;;109.15;36.00;;;-3.70;86.20;;;;;;5027556;28;20045;-63
2024/01/12 08:46:08;;;;;;;110.93;37.80;;;-3.70;86.10;;;;;;5025531;28;20103;-62
2024/01/12 08:48:35;;;;;;;106.78;37.42;;;-3.80;86.00;;;;;;5024650;28;20057;-60
2024/01/12 08:51:01;;;;;;;111.93;39.50;;;-3.80;86.10;;;;;;5025086;28;20072;-61
2024/01/12 08:53:26;;;;;;;105.28;36.85;;;-3.80;86.30;;;;;;5021133;28;20062;-61
2024/01/12 08:55:53;;;;;;;103.78;37.17;;;-3.80;86.30;;;;;;5023024;28;20480;-61
2024/01/12 08:58:19;;;;;;;105.10;36.85;;;-3.80;86.20;;;;;;5026591;28;20129;-60
2024/01/12 09:00:44;;;;;;;103.03;36.50;;;-3.70;86.40;;;;;;5025696;28;20129;-59
2024/01/12 09:03:10;;;;;;;107.40;38.13;;;-3.80;86.30;;;;;;5020535;28;20030;-61
2024/01/12 09:05:35;;;;;;;102.50;37.78;;;-3.80;86.10;;;;;;5023542;28;20037;-58
2024/01/12 09:08:01;;;;;;;116.75;38.88;;;-3.80;85.90;;;;;;5027860;28;20064;-60
2024/01/12 09:10:27;;;;;;;103.53;38.88;;;-3.80;85.80;;;;;;5027867;28;20041;-61
2024/01/12 09:12:53;;;;;;;112.32;38.90;;;-3.80;85.80;;;;;;5020579;28;20033;-61
2024/01/12 09:15:18;;;;;;;104.57;38.15;;;-3.90;85.70;;;;;;5026273;28;20061;-61
2024/01/12 09:17:44;;;;;;;103.05;38.22;;;-3.90;85.90;;;;;;5026505;28;20409;-61
2024/01/12 09:20:10;;;;;;;106.22;37.45;;;-3.90;86.10;;;;;;5021124;28;20057;-61
2024/01/12 09:22:36;;;;;;;102.63;37.00;;;-3.90;86.60;;;;;;5029860;28;20208;-61
2024/01/12 09:25:01;;;;;;;103.60;37.97;;;-3.80;86.90;;;;;;5025375;28;20084;-62
2024/01/12 09:27:27;;;;;;;93.70;37.85;;;-3.80;86.90;;;;;;5026910;28;20424;-61
2024/01/12 09:29:52;;;;;;;89.25;34.72;;;-3.70;86.80;;;;;;5022695;28;20022;-60
2024/01/12 09:32:18;;;;;;;86.18;33.92;;;-3.70;86.60;;;;;;5025726;28;20109;-60
2024/01/12 09:34:44;;;;;;;85.45;33.75;;;-3.70;86.60;;;;;;5026613;28;20033;-59
2024/01/12 09:37:09;;;;;;;84.55;33.63;;;-3.60;86.60;;;;;;5020678;28;20049;-58
2024/01/12 09:39:35;;;;;;;86.68;32.58;;;-3.60;86.60;;;;;;5028834;28;20025;-61
2024/01/12 09:42:02;;;;;;;84.70;34.65;;;-3.50;86.60;;;;;;5023442;28;20474;-60
2024/01/12 09:44:29;;;;;;;86.68;35.20;;;-3.50;86.40;;;;;;5025201;28;20047;-60
2024/01/12 09:46:57;;;;;;;89.95;36.85;;;-3.40;86.40;;;;;;5024977;28;20060;-61
2024/01/12 09:49:27;;;;;;;80.05;33.38;;;-3.40;86.10;;;;;;5022262;28;20041;-60
2024/01/12 09:51:53;;;;;;;81.55;34.08;;;-3.40;86.00;;;;;;5024664;28;20505;-62
2024/01/12 09:54:18;;;;;;;79.22;32.75;;;-3.40;85.90;;;;;;5027427;28;20087;-61
2024/01/12 09:56:44;;;;;;;84.50;34.08;;;-3.30;86.00;;;;;;5022119;28;20045;-59
2024/01/12 09:59:11;;;;;;;80.78;33.97;;;-3.30;86.00;;;;;;5026548;28;20382;-61
2024/01/12 10:01:43;;;;;;;86.85;33.90;;;-3.30;86.20;;;;;;5021856;28;20536;-60
2024/01/12 10:04:09;;;;;;;80.43;33.50;;;-3.20;86.30;;;;;;5025639;28;20037;-62
2024/01/12 10:06:36;;;;;;;80.47;33.30;;;-3.20;86.30;;;;;;5029477;28;20120;-60
2024/01/12 10:09:02;;;;;;;82.82;35.08;;;-3.10;86.50;;;;;;5018277;28;20065;-59
2024/01/12 10:11:28;;;;;;;82.28;33.22;;;-3.00;86.40;;;;;;5024792;28;20084;-61
2024/01/12 10:13:53;;;;;;;83.88;34.13;;;-3.00;86.30;;;;;;5023952;28;20144;-61
2024/01/12 10:16:20;;;;;;;83.70;33.88;;;-2.90;86.30;;;;;;5022605;28;20486;-61
2024/01/12 10:18:46;;;;;;;84.03;34.35;;;-2.80;86.30;;;;;;5026147;28;20034;-60
2024/01/12 10:21:14;;;;;;;80.85;34.13;;;-2.80;86.20;;;;;;5019551;28;20041;-61
2024/01/12 10:23:40;;;;;;;77.20;33.63;;;-2.70;86.30;;;;;;5030201;28;20094;-60
2024/01/12 10:26:08;;;;;;;76.68;33.10;;;-2.70;86.10;;;;;;5024746;28;20044;-56
2024/01/12 10:28:34;;;;;;;77.57;33.70;;;-2.60;86.10;;;;;;5025387;28;20064;-61
2024/01/12 10:31:05;;;;;;;80.25;34.55;;;-2.50;86.00;;;;;;5022753;28;20468;-59
2024/01/12 10:33:30;;;;;;;81.10;35.45;;;-2.50;85.90;;;;;;5024970;28;20033;-59
2024/01/12 10:36:05;;;;;;;81.63;34.30;;;-2.40;85.90;;;;;;5024418;28;20691;-60
2024/01/12 10:38:31;;;;;;;82.13;35.38;;;-2.40;85.80;;;;;;5026626;28;20042;-58
2024/01/12 10:40:59;;;;;;;78.78;34.35;;;-2.30;85.50;;;;;;5020963;28;20040;-61
2024/01/12 10:43:27;;;;;;;80.95;34.28;;;-2.30;85.40;;;;;;5025344;28;20039;-61
2024/01/12 10:45:57;;;;;;;81.75;33.97;;;-2.20;85.70;;;;;;5024512;28;20064;-60
2024/01/12 10:48:27;;;;;;;76.75;34.70;;;-2.20;85.90;;;;;;5023871;28;20021;-61
2024/01/12 10:50:58;;;;;;;81.40;33.53;;;-2.20;85.80;;;;;;5027812;28;20036;-61
2024/01/12 10:53:37;;;;;;;81.63;34.50;;;-2.10;85.70;;;;;;5022661;28;20080;-61
2024/01/12 10:56:03;;;;;;;76.68;34.85;;;-2.10;85.70;;;;;;5017163;28;20028;-61
2024/01/12 10:58:29;;;;;;;81.78;34.30;;;-2.00;85.80;;;;;;5025591;28;20037;-60
2024/01/12 11:00:55;;;;;;;81.47;36.42;;;-2.00;86.00;;;;;;5018985;28;20037;-59
2024/01/12 11:03:21;;;;;;;81.43;35.38;;;-2.00;86.10;;;;;;5028412;28;20037;-60
2024/01/12 11:05:50;;;;;;;86.20;36.08;;;-1.90;86.00;;;;;;5021572;28;20030;-60
2024/01/12 11:08:20;;;;;;;84.50;36.38;;;-1.90;85.80;;;;;;5023388;28;20034;-60
2024/01/12 11:10:53;;;;;;;86.57;36.75;;;-1.90;86.00;;;;;;5022555;28;20038;-60
2024/01/12 11:13:19;;;;;;;88.85;36.42;;;-1.80;86.10;;;;;;5018772;28;20038;-60
2024/01/12 11:15:49;;;;;;;93.47;39.33;;;-1.70;86.30;;;;;;5028787;28;20121;-59
2024/01/12 11:18:16;;;;;;;92.25;38.75;;;-1.70;86.20;;;;;;5023405;28;20095;-61
2024/01/12 11:20:43;;;;;;;91.85;37.65;;;-1.70;86.10;;;;;;5020611;28;20037;-61
2024/01/12 11:23:10;;;;;;;92.72;38.08;;;-1.60;86.20;;;;;;5026310;28;20049;-62
2024/01/12 11:25:36;;;;;;;88.40;36.63;;;-1.50;86.30;;;;;;5022899;28;20048;-59
2024/01/12 11:28:02;;;;;;;93.82;37.95;;;-1.50;86.40;;;;;;5024914;28;20104;-62
2024/01/12 11:30:29;;;;;;;94.78;37.88;;;-1.40;86.50;;;;;;5025332;28;20300;-60
2024/01/12 11:33:04;;;;;;;92.63;39.60;;;-1.40;86.30;;;;;;5018702;28;20030;-57
2024/01/12 11:35:31;;;;;;;82.78;37.45;;;-1.30;86.50;;;;;;5025130;28;20667;-60
2024/01/12 11:38:07;;;;;;;92.50;38.85;;;-1.20;86.40;;;;;;5022916;28;20127;-61
2024/01/12 11:40:34;;;;;;;94.47;38.00;;;-1.10;86.30;;;;;;5025566;28;20026;-59
2024/01/12 11:43:00;;;;;;;93.25;38.58;;;-1.10;86.30;;;;;;5025876;28;20120;-57
2024/01/12 11:45:27;;;;;;;97.32;40.63;;;-1.00;86.40;;;;;;5021766;28;20136;-61
2024/01/12 11:47:53;;;;;;;97.15;39.95;;;-1.00;87.20;;;;;;5023073;28;20026;-59
2024/01/12 11:50:19;;;;;;;100.43;39.55;;;-0.90;86.50;;;;;;5026820;28;20087;-59
2024/01/12 11:52:56;;;;;;;100.28;39.35;;;-0.80;86.50;;;;;;5021560;28;20041;-61
2024/01/12 11:55:22;;;;;;;99.85;39.97;;;-0.70;86.40;;;;;;5023880;28;20076;-59
2024/01/12 11:57:47;;;;;;;97.55;39.80;;;-0.70;86.20;;;;;;5023609;28;20053;-59
2024/01/12 12:00:13;;;;;;;93.53;39.95;;;-0.60;86.30;;;;;;5025276;28;20057;-61
2024/01/12 12:02:39;;;;;;;97.38;39.25;;;-0.50;86.20;;;;;;5025586;28;20033;-60
2024/01/12 12:05:11;;;;;;;101.88;40.95;;;-0.50;86.10;;;;;;5019781;28;20033;-59
2024/01/12 12:07:38;;;;;;;94.80;40.63;;;-0.50;86.10;;;;;;5026372;28;20033;-61
2024/01/12 12:10:05;;;;;;;101.25;38.95;;;-0.40;86.10;;;;;;5029570;28;20043;-58
2024/01/12 12:12:31;;;;;;;92.93;39.05;;;-0.40;86.00;;;;;;5027969;28;20179;-60
2024/01/12 12:14:56;;;;;;;97.25;40.05;;;-0.30;86.00;;;;;;5025108;28;20541;-59
2024/01/12 12:17:26;;;;;;;91.53;38.83;;;-0.30;85.90;;;;;;5029073;28;20117;-59